Shtandart — UAEM — position and weather

sailwx.info

Track history (hours):
 
Tides and Currents Weather Stations Pressure Air Temp Water Temp Dewpoint Dewpoint Depression Visibility Wind Speed Wind Dir Waves Ship Positions

Shtandart

Re-creation of early 1700's Russian naval frigate.

Last reported at 2017-Jul-26 08:08 UTC. Time now 2017-Jul-27 00:36 UTC.
Position N 56°03' E 019°31'.

Length 34 m; draft 3 m.

Type: Sailing vessel. MMSI: 273452840.

Date/timePositionNaut miles runAvg speedWind from/ knotsBaromVisibWave heightAir tempDewpointWater temp
2017-Jul-26 08:08N 56°03' E 019°31'9 7.1
2017-Jul-26 06:53N 56°09' E 019°20'27 6.3
2017-Jul-26 02:37N 56°29' E 018°47'7 6.7
2017-Jul-26 01:31N 56°34' E 018°38'2 6.9
2017-Jul-26 01:16N 56°35' E 018°35'2 6.8
2017-Jul-26 00:57N 56°37' E 018°32'5 6.2
2017-Jul-26 00:07N 56°40' E 018°26'1 6.3
2017-Jul-25 23:55N 56°41' E 018°24'5 6.5
2017-Jul-25 23:05N 56°45' E 018°17'1 6.4
2017-Jul-25 22:56N 56°46' E 018°16'136 5.5
2017-Jul-24 21:57N 58°58' E 019°20'5 7.3
2017-Jul-24 21:13N 59°00' E 019°29'2 7.2
2017-Jul-24 20:56N 59°02' E 019°32'3 8.1
2017-Jul-24 20:30N 59°04' E 019°37'3 6.4
2017-Jul-24 19:59N 59°06' E 019°42'4 7.6
2017-Jul-24 19:30N 59°09' E 019°48'3 6.4
2017-Jul-24 19:00N 59°10' E 019°53'3 6.2
2017-Jul-24 18:30N 59°12' E 019°59'3 6.5
2017-Jul-24 18:00N 59°13' E 020°04'3 6.4
2017-Jul-24 17:31N 59°14' E 020°10'3 6.6
2017-Jul-24 17:00N 59°16' E 020°16'3 7.1
2017-Jul-24 16:30N 59°17' E 020°22'4 7.1
2017-Jul-24 16:00N 59°19' E 020°28'20 6.8
2017-Jul-24 13:00N 59°31' E 020°60'3 5.3
2017-Jul-24 12:31N 59°33' E 021°03'3 5.2
2017-Jul-24 12:00N 59°35' E 021°07'3 5.2
2017-Jul-24 11:30N 59°37' E 021°11'3 5.0
2017-Jul-24 11:00N 59°38' E 021°15'2 3.5
2017-Jul-24 10:30N 59°40' E 021°16'2 4.8
2017-Jul-24 10:00N 59°42' E 021°18'1 2.1
2017-Jul-24 09:30N 59°43' E 021°19'0 0.3
2017-Jul-24 09:00N 59°43' E 021°19'0 0.7
2017-Jul-24 08:30N 59°44' E 021°19'1 2.6
2017-Jul-24 08:00N 59°45' E 021°20'2 3.7
2017-Jul-24 07:30N 59°47' E 021°20'1 2.7
2017-Jul-24 07:00N 59°48' E 021°20'1 2.8
2017-Jul-24 06:31N 59°49' E 021°20'1 2.5
2017-Jul-24 06:01N 59°51' E 021°21'1 1.8
2017-Jul-24 05:30N 59°51' E 021°21'1 1.9
2017-Jul-24 05:00N 59°52' E 021°23'1 2.0
2017-Jul-24 04:31N 59°53' E 021°24'1 2.7
2017-Jul-24 04:00N 59°53' E 021°27'1 2.4
2017-Jul-24 03:30N 59°54' E 021°28'1 2.4
2017-Jul-24 03:01N 59°55' E 021°30'3 5.1
2017-Jul-24 02:30N 59°57' E 021°33'1 2.0
2017-Jul-24 02:00N 59°58' E 021°34'1 2.1
2017-Jul-24 01:30N 59°59' E 021°35'1 2.3
2017-Jul-24 01:00N 59°60' E 021°36'3 5.6
2017-Jul-24 00:30N 60°02' E 021°38'3 5.9
2017-Jul-24 00:00N 60°05' E 021°41'3 6.0
2017-Jul-23 23:30N 60°08' E 021°41'3 5.9
2017-Jul-23 23:00N 60°11' E 021°42'2 4.9
2017-Jul-23 22:30N 60°13' E 021°43'3 5.9
2017-Jul-23 22:00N 60°14' E 021°49'2 4.3
2017-Jul-23 21:31N 60°15' E 021°53'1 2.0
2017-Jul-23 21:00N 60°15' E 021°55'1 2.8
2017-Jul-23 20:30N 60°16' E 021°57'1 2.3
2017-Jul-23 20:01N 60°17' E 021°59'1 1.2
2017-Jul-23 19:30N 60°17' E 021°60'1 1.1
2017-Jul-23 19:00N 60°17' E 022°01'1 2.4
2017-Jul-23 18:31N 60°18' E 022°02'1 1.9
2017-Jul-23 18:00N 60°19' E 022°03'2 3.2
2017-Jul-23 17:30N 60°21' E 022°04'2 4.6
2017-Jul-23 17:00N 60°23' E 022°06'3 5.7
2017-Jul-23 16:31N 60°25' E 022°10'2 4.5
2017-Jul-23 16:00N 60°26' E 022°14'1 1.0
2017-Jul-23 15:31N 60°26' E 022°15'1 1.3
2017-Jul-23 15:00N 60°26' E 022°14'3 6.5
2017-Jul-23 14:31N 60°25' E 022°08'0 0.1
2017-Jul-23 14:01N 60°25' E 022°08'2 4.0
2017-Jul-23 13:30N 60°26' E 022°11'2 2.9
2017-Jul-23 12:58N 60°26' E 022°14'0 0.7
2017-Jul-23 12:30N 60°26' E 022°15'0 0.0
2017-Jul-23 12:00N 60°26' E 022°15'0 0.0
2017-Jul-23 11:30N 60°26' E 022°15'0 0.0
2017-Jul-23 11:00N 60°26' E 022°15'0 0.0
2017-Jul-23 10:30N 60°26' E 022°15'0 0.0
2017-Jul-23 10:00N 60°26' E 022°15'0 0.0
2017-Jul-23 09:30N 60°26' E 022°15'0 0.0
2017-Jul-23 09:00N 60°26' E 022°15'0 0.0
2017-Jul-23 08:30N 60°26' E 022°15'0 0.0
2017-Jul-23 08:00N 60°26' E 022°15'0 0.0
2017-Jul-23 07:30N 60°26' E 022°15'0 0.0
2017-Jul-23 07:00N 60°26' E 022°15'0 0.0
2017-Jul-23 06:30N 60°26' E 022°15'0 0.0
2017-Jul-23 06:00N 60°26' E 022°15'0 0.0
2017-Jul-23 05:30N 60°26' E 022°15'0 0.0
2017-Jul-23 05:00N 60°26' E 022°15'0 0.0
2017-Jul-23 04:30N 60°26' E 022°15'0 0.0
2017-Jul-23 04:00N 60°26' E 022°15'0 0.0
2017-Jul-23 03:30N 60°26' E 022°15'0 0.0
2017-Jul-23 02:57N 60°26' E 022°15'0 0.0
2017-Jul-23 02:30N 60°26' E 022°15'0 0.0
2017-Jul-23 02:00N 60°26' E 022°15'0 0.0
2017-Jul-23 01:30N 60°26' E 022°15'0 0.0
2017-Jul-23 01:00N 60°26' E 022°15'0 0.0
2017-Jul-23 00:30N 60°26' E 022°15'0 0.0
2017-Jul-23 00:00N 60°26' E 022°15'0 0.0
2017-Jul-22 23:30N 60°26' E 022°15'0 0.0
2017-Jul-22 23:00N 60°26' E 022°15'0 0.0
2017-Jul-22 22:30N 60°26' E 022°15'0 0.0
2017-Jul-22 22:00N 60°26' E 022°15'0 0.0
2017-Jul-22 21:30N 60°26' E 022°15'0 0.0
2017-Jul-22 20:56N 60°26' E 022°15'0 0.0
2017-Jul-22 20:29N 60°26' E 022°15'0 0.0
2017-Jul-22 19:59N 60°26' E 022°15'0 0.0
2017-Jul-22 19:24N 60°26' E 022°15'0 0.0
2017-Jul-22 19:00N 60°26' E 022°15'0 0.0
2017-Jul-22 18:30N 60°26' E 022°15'0 0.0
2017-Jul-22 18:00N 60°26' E 022°15'0 0.0
2017-Jul-22 17:30N 60°26' E 022°15'0 0.0
2017-Jul-22 17:00N 60°26' E 022°15'0 0.0
2017-Jul-22 16:30N 60°26' E 022°15'0 0.0
2017-Jul-22 16:00N 60°26' E 022°15'0 0.0
2017-Jul-22 15:30N 60°26' E 022°15'0 0.0
2017-Jul-22 14:54N 60°26' E 022°15'0 0.0
2017-Jul-22 13:57N 60°26' E 022°15'0 0.0
2017-Jul-22 13:30N 60°26' E 022°15'0 0.0
2017-Jul-22 13:00N 60°26' E 022°15'0 0.0
2017-Jul-22 12:30N 60°26' E 022°15'0 0.0
2017-Jul-22 12:00N 60°26' E 022°15'0 0.0
2017-Jul-22 11:30N 60°26' E 022°15'0 0.0
2017-Jul-22 11:00N 60°26' E 022°15'0 0.0
2017-Jul-22 10:27N 60°26' E 022°15'0 0.0
2017-Jul-22 10:00N 60°26' E 022°15'0 0.0
2017-Jul-22 09:30N 60°26' E 022°15'0 0.0
2017-Jul-22 09:00N 60°26' E 022°15'0 0.0
2017-Jul-22 08:30N 60°26' E 022°15'0 0.0
2017-Jul-22 08:00N 60°26' E 022°15'0 0.0
2017-Jul-22 07:30N 60°26' E 022°15'0 0.0
2017-Jul-22 07:00N 60°26' E 022°15'0 0.0
2017-Jul-22 06:30N 60°26' E 022°15'0 0.0
2017-Jul-22 06:00N 60°26' E 022°15'0 0.0
2017-Jul-22 05:30N 60°26' E 022°15'0 0.0
2017-Jul-22 05:00N 60°26' E 022°15'0 0.0
2017-Jul-22 04:30N 60°26' E 022°15'0 0.0
2017-Jul-22 04:00N 60°26' E 022°15'0 0.0
2017-Jul-22 03:30N 60°26' E 022°15'0 0.0
2017-Jul-22 02:57N 60°26' E 022°15'0 0.0
2017-Jul-22 02:30N 60°26' E 022°15'0 0.0
2017-Jul-22 02:00N 60°26' E 022°15'0 0.0
2017-Jul-22 01:27N 60°26' E 022°15'0 0.0
2017-Jul-22 01:00N 60°26' E 022°15'0 0.0
2017-Jul-22 00:30N 60°26' E 022°15'0 0.0
2017-Jul-22 00:00N 60°26' E 022°15'0 0.0
2017-Jul-21 23:30N 60°26' E 022°15'0 0.0
2017-Jul-21 23:00N 60°26' E 022°15'0 0.0
2017-Jul-21 22:30N 60°26' E 022°15'0 0.0
2017-Jul-21 22:00N 60°26' E 022°15'0 0.0
2017-Jul-21 21:30N 60°26' E 022°15'0 0.0
2017-Jul-21 21:00N 60°26' E 022°15'0 0.0
2017-Jul-21 20:30N 60°26' E 022°15'0 0.0
2017-Jul-21 20:00N 60°26' E 022°15'0 0.0
2017-Jul-21 19:30N 60°26' E 022°15'0 0.0
2017-Jul-21 18:57N 60°26' E 022°15'0 0.0
2017-Jul-21 18:30N 60°26' E 022°15'0 0.0
2017-Jul-21 18:00N 60°26' E 022°15'0 0.0
2017-Jul-21 17:27N 60°26' E 022°15'0 0.0
2017-Jul-21 17:00N 60°26' E 022°15'0 0.0
2017-Jul-21 16:28N 60°26' E 022°15'0 0.0
2017-Jul-21 16:00N 60°26' E 022°15'0 0.0
2017-Jul-21 15:30N 60°26' E 022°15'0 0.0
2017-Jul-21 15:00N 60°26' E 022°15'0 0.0
2017-Jul-21 14:30N 60°26' E 022°15'0 0.0
2017-Jul-21 14:00N 60°26' E 022°15'0 0.0
2017-Jul-21 13:30N 60°26' E 022°15'0 0.0
2017-Jul-21 13:00N 60°26' E 022°15'0 0.0
2017-Jul-21 12:30N 60°26' E 022°15'0 0.0
2017-Jul-21 12:00N 60°26' E 022°15'0 0.0
2017-Jul-21 11:30N 60°26' E 022°15'0 0.0
2017-Jul-21 11:00N 60°26' E 022°15'0 0.0
2017-Jul-21 10:30N 60°26' E 022°15'0 0.0
2017-Jul-21 10:00N 60°26' E 022°15'0 0.0
2017-Jul-21 09:30N 60°26' E 022°15'0 0.0
2017-Jul-21 09:00N 60°26' E 022°15'0 0.0
2017-Jul-21 08:30N 60°26' E 022°15'0 0.0
2017-Jul-21 07:57N 60°26' E 022°15'0 0.0
2017-Jul-21 07:30N 60°26' E 022°15'0 0.0
2017-Jul-21 07:00N 60°26' E 022°15'0 0.0
2017-Jul-21 06:30N 60°26' E 022°15'0 0.0
2017-Jul-21 06:00N 60°26' E 022°15'0 0.0
2017-Jul-21 05:30N 60°26' E 022°15'0 0.0
2017-Jul-21 05:00N 60°26' E 022°15'0 0.0
2017-Jul-21 04:30N 60°26' E 022°15'0 0.0
2017-Jul-21 04:00N 60°26' E 022°15'0 0.0
2017-Jul-21 03:30N 60°26' E 022°15'0 0.0
2017-Jul-21 03:00N 60°26' E 022°15'0 0.0
2017-Jul-21 02:30N 60°26' E 022°15'0 0.0
2017-Jul-21 02:00N 60°26' E 022°15'0 0.0
2017-Jul-21 01:30N 60°26' E 022°15'0 0.0
2017-Jul-21 01:00N 60°26' E 022°15'0 0.0
2017-Jul-21 00:30N 60°26' E 022°15'0 0.0
2017-Jul-21 00:00N 60°26' E 022°15'0 0.0
2017-Jul-20 23:30N 60°26' E 022°15'0 0.0
2017-Jul-20 23:00N 60°26' E 022°15'0 0.0
2017-Jul-20 22:30N 60°26' E 022°15'0 0.0
2017-Jul-20 22:00N 60°26' E 022°15'0 0.0
2017-Jul-20 21:30N 60°26' E 022°15'0 0.0
2017-Jul-20 20:56N 60°26' E 022°15'0 0.0
2017-Jul-20 20:29N 60°26' E 022°15'0 0.0
2017-Jul-20 20:00N 60°26' E 022°15'0 0.0
2017-Jul-20 19:25N 60°26' E 022°15'0 0.0
2017-Jul-20 19:00N 60°26' E 022°15'0 0.0
2017-Jul-20 18:30N 60°26' E 022°15'0 0.0
2017-Jul-20 18:00N 60°26' E 022°15'0 0.0
2017-Jul-20 17:30N 60°26' E 022°15'0 0.0
2017-Jul-20 17:00N 60°26' E 022°15'0 0.0
2017-Jul-20 16:28N 60°26' E 022°15'0 0.0
2017-Jul-20 16:00N 60°26' E 022°15'0 0.0
2017-Jul-20 15:30N 60°26' E 022°15'0 0.0
2017-Jul-20 15:00N 60°26' E 022°15'0 0.0
2017-Jul-20 14:00N 60°26' E 022°15'0 0.0
2017-Jul-20 13:30N 60°26' E 022°15'0 0.0
2017-Jul-20 13:00N 60°26' E 022°15'0 0.0
2017-Jul-20 12:30N 60°26' E 022°15'0 0.0
2017-Jul-20 12:00N 60°26' E 022°15'0 0.0
2017-Jul-20 11:30N 60°26' E 022°15'0 0.0
2017-Jul-20 11:00N 60°26' E 022°15'0 0.0
2017-Jul-20 10:30N 60°26' E 022°15'0 0.0
2017-Jul-20 10:00N 60°26' E 022°15'0 0.0
2017-Jul-20 09:30N 60°26' E 022°15'0 0.0
2017-Jul-20 09:00N 60°26' E 022°15'1 1.1
2017-Jul-20 08:30N 60°26' E 022°14'1 1.1
2017-Jul-20 07:58N 60°26' E 022°13'0 0.0
2017-Jul-20 07:28N 60°26' E 022°13'0 0.0
2017-Jul-20 06:58N 60°26' E 022°13'0 0.0
2017-Jul-20 06:28N 60°26' E 022°13'0 0.0
2017-Jul-20 05:58N 60°26' E 022°13'0 0.0
2017-Jul-20 05:28N 60°26' E 022°13'0 0.0
2017-Jul-20 04:58N 60°26' E 022°13'0 0.0
2017-Jul-20 04:28N 60°26' E 022°13'0 0.0
2017-Jul-20 03:58N 60°26' E 022°13'0 0.0
2017-Jul-20 03:28N 60°26' E 022°13'0 0.0
2017-Jul-20 02:58N 60°26' E 022°13'0 0.0
2017-Jul-20 02:28N 60°26' E 022°13'0 0.0
2017-Jul-20 01:58N 60°27' E 022°13'0 0.0
2017-Jul-20 01:28N 60°26' E 022°13'0 0.0
2017-Jul-20 00:58N 60°26' E 022°13'0 0.0
2017-Jul-20 00:28N 60°26' E 022°13'1 2.0
2017-Jul-20 00:00N 60°26' E 022°12'3 5.5
2017-Jul-19 23:30N 60°24' E 022°07'3 6.2
2017-Jul-19 23:01N 60°21' E 022°05'3 6.3
2017-Jul-19 22:31N 60°18' E 022°04'3 6.6
2017-Jul-19 22:01N 60°15' E 022°06'3 6.2
2017-Jul-19 21:31N 60°12' E 022°08'2 4.2
2017-Jul-19 21:01N 60°10' E 022°08'3 6.4
2017-Jul-19 20:30N 60°07' E 022°11'3 6.3
2017-Jul-19 20:00N 60°05' E 022°16'3 6.4
2017-Jul-19 19:30N 60°03' E 022°20'1 1.6
2017-Jul-19 19:00N 60°02' E 022°20'0 0.0
2017-Jul-19 18:31N 60°02' E 022°20'0 0.0
2017-Jul-19 18:01N 60°02' E 022°20'0 0.0
2017-Jul-19 17:31N 60°02' E 022°20'0 0.0
2017-Jul-19 17:01N 60°02' E 022°20'0 0.0
2017-Jul-19 16:30N 60°02' E 022°20'0 0.0
2017-Jul-19 16:00N 60°02' E 022°20'0 0.0
2017-Jul-19 15:30N 60°02' E 022°20'0 0.0
2017-Jul-19 15:01N 60°02' E 022°20'0 0.0
2017-Jul-19 14:31N 60°02' E 022°20'0 0.0
2017-Jul-19 14:01N 60°02' E 022°20'0 0.0
2017-Jul-19 13:31N 60°02' E 022°20'0 0.0
2017-Jul-19 13:00N 60°02' E 022°20'0 0.0
2017-Jul-19 12:30N 60°02' E 022°20'0 0.0
2017-Jul-19 12:01N 60°02' E 022°20'0 0.0
2017-Jul-19 11:31N 60°02' E 022°20'0 0.0
2017-Jul-19 11:01N 60°02' E 022°20'0 0.0
2017-Jul-19 10:31N 60°02' E 022°20'0 0.0
2017-Jul-19 10:01N 60°02' E 022°20'0 0.0
2017-Jul-19 09:30N 60°02' E 022°20'0 0.0
2017-Jul-19 09:00N 60°02' E 022°20'0 0.2
2017-Jul-19 08:30N 60°02' E 022°20'2 3.7
2017-Jul-19 08:01N 60°01' E 022°22'3 6.4
2017-Jul-19 07:30N 59°57' E 022°23'2 4.6
2017-Jul-19 06:59N 59°55' E 022°24'0 0.0
2017-Jul-19 06:29N 59°55' E 022°24'0 0.0
2017-Jul-19 05:59N 59°55' E 022°24'0 0.0
2017-Jul-19 05:29N 59°55' E 022°24'0 0.0
2017-Jul-19 04:59N 59°55' E 022°24'0 0.0
2017-Jul-19 04:29N 59°55' E 022°24'0 0.0
2017-Jul-19 03:59N 59°55' E 022°24'0 0.0
2017-Jul-19 03:29N 59°55' E 022°24'0 0.0
2017-Jul-19 02:59N 59°55' E 022°24'0 0.0
2017-Jul-19 02:29N 59°55' E 022°24'0 0.0
2017-Jul-19 01:56N 59°55' E 022°24'0 0.0
2017-Jul-19 01:29N 59°55' E 022°24'0 0.0
2017-Jul-19 00:59N 59°55' E 022°24'0 0.0
2017-Jul-19 00:29N 59°55' E 022°24'0 0.0
2017-Jul-18 23:59N 59°55' E 022°24'0 0.0
2017-Jul-18 23:29N 59°55' E 022°24'0 0.0
2017-Jul-18 22:59N 59°55' E 022°24'0 0.0
2017-Jul-18 22:29N 59°55' E 022°24'0 0.0
2017-Jul-18 21:59N 59°55' E 022°24'0 0.0
2017-Jul-18 21:29N 59°55' E 022°24'0 0.0
2017-Jul-18 20:59N 59°55' E 022°24'0 0.0
2017-Jul-18 20:28N 59°55' E 022°24'0 0.0
2017-Jul-18 20:00N 59°55' E 022°24'0 0.0
2017-Jul-18 19:26N 59°55' E 022°24'0 0.0
2017-Jul-18 18:59N 59°55' E 022°24'0 0.0
2017-Jul-18 18:29N 59°55' E 022°24'0 0.0
2017-Jul-18 17:59N 59°55' E 022°24'0 0.0
2017-Jul-18 17:29N 59°55' E 022°24'0 0.0
2017-Jul-18 16:59N 59°55' E 022°24'0 0.0
2017-Jul-18 16:29N 59°55' E 022°24'0 0.0
2017-Jul-18 15:59N 59°55' E 022°24'0 0.0
2017-Jul-18 15:29N 59°55' E 022°24'0 0.0
2017-Jul-18 14:59N 59°55' E 022°24'0 0.0
2017-Jul-18 13:59N 59°55' E 022°24'0 0.0
2017-Jul-18 13:29N 59°55' E 022°24'0 0.0
2017-Jul-18 12:59N 59°55' E 022°24'0 0.0
2017-Jul-18 12:26N 59°55' E 022°24'0 0.0
2017-Jul-18 11:59N 59°55' E 022°24'0 0.0
2017-Jul-18 11:29N 59°55' E 022°24'0 0.0
2017-Jul-18 10:59N 59°55' E 022°24'0 0.0
2017-Jul-18 10:29N 59°55' E 022°24'0 0.0
2017-Jul-18 09:59N 59°55' E 022°24'0 0.0
2017-Jul-18 09:29N 59°55' E 022°24'0 0.0
2017-Jul-18 08:59N 59°55' E 022°24'0 0.0
2017-Jul-18 08:29N 59°55' E 022°24'0 0.0
2017-Jul-18 07:59N 59°55' E 022°24'0 0.0
2017-Jul-18 07:29N 59°55' E 022°24'0 0.0
2017-Jul-18 06:59N 59°55' E 022°24'0 0.0
2017-Jul-18 06:29N 59°55' E 022°24'0 0.0
2017-Jul-18 05:59N 59°55' E 022°24'0 0.0
2017-Jul-18 05:29N 59°55' E 022°24'0 0.0
2017-Jul-18 04:59N 59°55' E 022°24'0 0.0
2017-Jul-18 04:26N 59°55' E 022°24'0 0.0
2017-Jul-18 03:58N 59°55' E 022°24'0 0.0
2017-Jul-18 03:28N 59°55' E 022°24'0 0.0
2017-Jul-18 02:58N 59°55' E 022°24'0 0.0
2017-Jul-18 02:28N 59°55' E 022°24'0 0.0
2017-Jul-18 01:58N 59°55' E 022°24'0 0.0
2017-Jul-18 01:28N 59°55' E 022°24'0 0.0
2017-Jul-18 00:58N 59°55' E 022°24'0 0.0
2017-Jul-18 00:28N 59°55' E 022°24'0 0.0
2017-Jul-17 23:58N 59°55' E 022°24'0 0.0
2017-Jul-17 23:28N 59°55' E 022°24'0 0.0
2017-Jul-17 22:58N 59°55' E 022°24'0 0.0
2017-Jul-17 22:28N 59°55' E 022°24'0 0.0
2017-Jul-17 21:58N 59°55' E 022°24'0 0.0
2017-Jul-17 21:28N 59°55' E 022°24'0 0.0
2017-Jul-17 20:58N 59°55' E 022°24'0 0.0
2017-Jul-17 20:30N 59°55' E 022°24'0 0.0
2017-Jul-17 19:59N 59°55' E 022°24'0 0.0
2017-Jul-17 19:28N 59°55' E 022°24'0 0.0
2017-Jul-17 18:58N 59°55' E 022°24'0 0.0
2017-Jul-17 18:28N 59°55' E 022°24'0 0.0
2017-Jul-17 17:58N 59°55' E 022°24'0 0.0
2017-Jul-17 17:28N 59°55' E 022°24'0 0.0
2017-Jul-17 16:52N 59°55' E 022°24'0 0.0
2017-Jul-17 16:28N 59°55' E 022°24'0 0.2
2017-Jul-17 16:00N 59°55' E 022°25'2 4.9
2017-Jul-17 15:30N 59°54' E 022°29'3 6.0
2017-Jul-17 15:01N 59°55' E 022°34'3 5.8
2017-Jul-17 14:31N 59°55' E 022°40'3 6.2
2017-Jul-17 14:00N 59°53' E 022°46'3 6.7
2017-Jul-17 13:31N 59°52' E 022°52'2 3.7
2017-Jul-17 13:01N 59°50' E 022°52'2 4.6
2017-Jul-17 12:31N 59°48' E 022°53'3 5.3
2017-Jul-17 12:01N 59°47' E 022°58'3 5.3
2017-Jul-17 11:31N 59°48' E 023°03'3 5.4
2017-Jul-17 11:00N 59°48' E 023°08'3 5.6
2017-Jul-17 10:31N 59°48' E 023°14'3 5.6
2017-Jul-17 10:01N 59°49' E 023°19'3 6.0
2017-Jul-17 09:31N 59°50' E 023°25'3 6.4
2017-Jul-17 09:01N 59°50' E 023°31'3 6.1
2017-Jul-17 08:30N 59°50' E 023°37'3 6.0
2017-Jul-17 08:01N 59°50' E 023°43'3 5.9
2017-Jul-17 07:31N 59°50' E 023°49'3 6.2
2017-Jul-17 07:00N 59°50' E 023°55'3 6.8
2017-Jul-17 06:31N 59°50' E 024°02'3 6.2
2017-Jul-17 06:00N 59°50' E 024°08'2 3.6
2017-Jul-17 05:31N 59°50' E 024°12'2 3.8
2017-Jul-17 05:00N 59°51' E 024°15'3 5.1
2017-Jul-17 04:31N 59°53' E 024°19'3 5.2
2017-Jul-17 04:01N 59°53' E 024°24'3 5.3
2017-Jul-17 03:31N 59°54' E 024°29'3 5.9
2017-Jul-17 03:01N 59°55' E 024°35'3 5.9
2017-Jul-17 02:31N 59°56' E 024°41'3 5.9
2017-Jul-17 02:01N 59°56' E 024°46'3 6.0
2017-Jul-17 01:31N 59°58' E 024°51'3 6.1
2017-Jul-17 01:01N 59°59' E 024°57'3 6.2
2017-Jul-17 00:31N 60°00' E 025°03'3 6.3
2017-Jul-17 00:00N 60°02' E 025°08'3 6.3
2017-Jul-16 23:31N 60°03' E 025°14'3 6.2
2017-Jul-16 23:01N 60°05' E 025°19'3 6.5
2017-Jul-16 22:31N 60°08' E 025°22'3 5.8
2017-Jul-16 22:01N 60°09' E 025°27'3 6.5
2017-Jul-16 21:30N 60°10' E 025°33'3 6.6
2017-Jul-16 21:00N 60°12' E 025°39'3 6.6
2017-Jul-16 20:30N 60°12' E 025°46'3 5.0
2017-Jul-16 20:00N 60°11' E 025°51'2 4.8
2017-Jul-16 19:30N 60°11' E 025°55'3 5.5
2017-Jul-16 19:01N 60°11' E 026°01'3 5.2
2017-Jul-16 18:31N 60°13' E 026°05'3 6.1
2017-Jul-16 18:00N 60°15' E 026°09'3 6.0
2017-Jul-16 17:30N 60°16' E 026°14'3 6.2
2017-Jul-16 17:01N 60°18' E 026°20'3 5.8
2017-Jul-16 16:31N 60°19' E 026°26'3 5.2
2017-Jul-16 16:00N 60°19' E 026°31'3 5.7
2017-Jul-16 15:30N 60°21' E 026°36'3 5.9
2017-Jul-16 15:01N 60°22' E 026°41'2 4.7
2017-Jul-16 14:30N 60°23' E 026°46'3 5.6
2017-Jul-16 14:00N 60°24' E 026°51'2 4.6
2017-Jul-16 13:31N 60°25' E 026°55'2 3.4
2017-Jul-16 13:00N 60°26' E 026°58'2 3.4
2017-Jul-16 12:30N 60°28' E 026°58'1 1.9
2017-Jul-16 12:00N 60°28' E 026°57'0 0.0
2017-Jul-16 11:30N 60°28' E 026°57'0 0.0
2017-Jul-16 10:56N 60°28' E 026°57'0 0.0
2017-Jul-16 10:30N 60°28' E 026°57'0 0.0
2017-Jul-16 10:00N 60°28' E 026°57'0 0.0
2017-Jul-16 09:27N 60°28' E 026°57'0 0.0
2017-Jul-16 09:00N 60°28' E 026°57'0 0.0
2017-Jul-16 08:27N 60°28' E 026°57'  
Track history (hours):
 
Tides and Currents Weather Stations Pressure Air Temp Water Temp Dewpoint Dewpoint Depression Visibility Wind Speed Wind Dir Waves Ship Positions

Shtandart

Re-creation of early 1700's Russian naval frigate.

Last reported at 2017-Jul-26 08:08 UTC. Time now 2017-Jul-27 00:36 UTC.
Position N 56°03' E 019°31'.

Length 34 m; draft 3 m.

Type: Sailing vessel. MMSI: 273452840.

Date/timePositionNaut miles runAvg speedWind from/ knotsBaromVisibWave heightAir tempDewpointWater temp
2017-Jul-26 08:08N 56°03' E 019°31'9 7.1
2017-Jul-26 06:53N 56°09' E 019°20'27 6.3
2017-Jul-26 02:37N 56°29' E 018°47'7 6.7
2017-Jul-26 01:31N 56°34' E 018°38'2 6.9
2017-Jul-26 01:16N 56°35' E 018°35'2 6.8
2017-Jul-26 00:57N 56°37' E 018°32'5 6.2
2017-Jul-26 00:07N 56°40' E 018°26'1 6.3
2017-Jul-25 23:55N 56°41' E 018°24'5 6.5
2017-Jul-25 23:05N 56°45' E 018°17'1 6.4
2017-Jul-25 22:56N 56°46' E 018°16'136 5.5
2017-Jul-24 21:57N 58°58' E 019°20'5 7.3
2017-Jul-24 21:13N 59°00' E 019°29'2 7.2
2017-Jul-24 20:56N 59°02' E 019°32'3 8.1
2017-Jul-24 20:30N 59°04' E 019°37'3 6.4
2017-Jul-24 19:59N 59°06' E 019°42'4 7.6
2017-Jul-24 19:30N 59°09' E 019°48'3 6.4
2017-Jul-24 19:00N 59°10' E 019°53'3 6.2
2017-Jul-24 18:30N 59°12' E 019°59'3 6.5
2017-Jul-24 18:00N 59°13' E 020°04'3 6.4
2017-Jul-24 17:31N 59°14' E 020°10'3 6.6
2017-Jul-24 17:00N 59°16' E 020°16'3 7.1
2017-Jul-24 16:30N 59°17' E 020°22'4 7.1
2017-Jul-24 16:00N 59°19' E 020°28'20 6.8
2017-Jul-24 13:00N 59°31' E 020°60'3 5.3
2017-Jul-24 12:31N 59°33' E 021°03'3 5.2
2017-Jul-24 12:00N 59°35' E 021°07'3 5.2
2017-Jul-24 11:30N 59°37' E 021°11'3 5.0
2017-Jul-24 11:00N 59°38' E 021°15'2 3.5
2017-Jul-24 10:30N 59°40' E 021°16'2 4.8
2017-Jul-24 10:00N 59°42' E 021°18'1 2.1
2017-Jul-24 09:30N 59°43' E 021°19'0 0.3
2017-Jul-24 09:00N 59°43' E 021°19'0 0.7
2017-Jul-24 08:30N 59°44' E 021°19'1 2.6
2017-Jul-24 08:00N 59°45' E 021°20'2 3.7
2017-Jul-24 07:30N 59°47' E 021°20'1 2.7
2017-Jul-24 07:00N 59°48' E 021°20'1 2.8
2017-Jul-24 06:31N 59°49' E 021°20'1 2.5
2017-Jul-24 06:01N 59°51' E 021°21'1 1.8
2017-Jul-24 05:30N 59°51' E 021°21'1 1.9
2017-Jul-24 05:00N 59°52' E 021°23'1 2.0
2017-Jul-24 04:31N 59°53' E 021°24'1 2.7
2017-Jul-24 04:00N 59°53' E 021°27'1 2.4
2017-Jul-24 03:30N 59°54' E 021°28'1 2.4
2017-Jul-24 03:01N 59°55' E 021°30'3 5.1
2017-Jul-24 02:30N 59°57' E 021°33'1 2.0
2017-Jul-24 02:00N 59°58' E 021°34'1 2.1
2017-Jul-24 01:30N 59°59' E 021°35'1 2.3
2017-Jul-24 01:00N 59°60' E 021°36'3 5.6
2017-Jul-24 00:30N 60°02' E 021°38'3 5.9
2017-Jul-24 00:00N 60°05' E 021°41'3 6.0
2017-Jul-23 23:30N 60°08' E 021°41'3 5.9
2017-Jul-23 23:00N 60°11' E 021°42'2 4.9
2017-Jul-23 22:30N 60°13' E 021°43'3 5.9
2017-Jul-23 22:00N 60°14' E 021°49'2 4.3
2017-Jul-23 21:31N 60°15' E 021°53'1 2.0
2017-Jul-23 21:00N 60°15' E 021°55'1 2.8
2017-Jul-23 20:30N 60°16' E 021°57'1 2.3
2017-Jul-23 20:01N 60°17' E 021°59'1 1.2
2017-Jul-23 19:30N 60°17' E 021°60'1 1.1
2017-Jul-23 19:00N 60°17' E 022°01'1 2.4
2017-Jul-23 18:31N 60°18' E 022°02'1 1.9
2017-Jul-23 18:00N 60°19' E 022°03'2 3.2
2017-Jul-23 17:30N 60°21' E 022°04'2 4.6
2017-Jul-23 17:00N 60°23' E 022°06'3 5.7
2017-Jul-23 16:31N 60°25' E 022°10'2 4.5
2017-Jul-23 16:00N 60°26' E 022°14'1 1.0
2017-Jul-23 15:31N 60°26' E 022°15'1 1.3
2017-Jul-23 15:00N 60°26' E 022°14'3 6.5
2017-Jul-23 14:31N 60°25' E 022°08'0 0.1
2017-Jul-23 14:01N 60°25' E 022°08'2 4.0
2017-Jul-23 13:30N 60°26' E 022°11'2 2.9
2017-Jul-23 12:58N 60°26' E 022°14'0 0.7
2017-Jul-23 12:30N 60°26' E 022°15'0 0.0
2017-Jul-23 12:00N 60°26' E 022°15'0 0.0
2017-Jul-23 11:30N 60°26' E 022°15'0 0.0
2017-Jul-23 11:00N 60°26' E 022°15'0 0.0
2017-Jul-23 10:30N 60°26' E 022°15'0 0.0
2017-Jul-23 10:00N 60°26' E 022°15'0 0.0
2017-Jul-23 09:30N 60°26' E 022°15'0 0.0
2017-Jul-23 09:00N 60°26' E 022°15'0 0.0
2017-Jul-23 08:30N 60°26' E 022°15'0 0.0
2017-Jul-23 08:00N 60°26' E 022°15'0 0.0
2017-Jul-23 07:30N 60°26' E 022°15'0 0.0
2017-Jul-23 07:00N 60°26' E 022°15'0 0.0
2017-Jul-23 06:30N 60°26' E 022°15'0 0.0
2017-Jul-23 06:00N 60°26' E 022°15'0 0.0
2017-Jul-23 05:30N 60°26' E 022°15'0 0.0
2017-Jul-23 05:00N 60°26' E 022°15'0 0.0
2017-Jul-23 04:30N 60°26' E 022°15'0 0.0
2017-Jul-23 04:00N 60°26' E 022°15'0 0.0
2017-Jul-23 03:30N 60°26' E 022°15'0 0.0
2017-Jul-23 02:57N 60°26' E 022°15'0 0.0
2017-Jul-23 02:30N 60°26' E 022°15'0 0.0
2017-Jul-23 02:00N 60°26' E 022°15'0 0.0
2017-Jul-23 01:30N 60°26' E 022°15'0 0.0
2017-Jul-23 01:00N 60°26' E 022°15'0 0.0
2017-Jul-23 00:30N 60°26' E 022°15'0 0.0
2017-Jul-23 00:00N 60°26' E 022°15'0 0.0
2017-Jul-22 23:30N 60°26' E 022°15'0 0.0
2017-Jul-22 23:00N 60°26' E 022°15'0 0.0
2017-Jul-22 22:30N 60°26' E 022°15'0 0.0
2017-Jul-22 22:00N 60°26' E 022°15'0 0.0
2017-Jul-22 21:30N 60°26' E 022°15'0 0.0
2017-Jul-22 20:56N 60°26' E 022°15'0 0.0
2017-Jul-22 20:29N 60°26' E 022°15'0 0.0
2017-Jul-22 19:59N 60°26' E 022°15'0 0.0
2017-Jul-22 19:24N 60°26' E 022°15'0 0.0
2017-Jul-22 19:00N 60°26' E 022°15'0 0.0
2017-Jul-22 18:30N 60°26' E 022°15'0 0.0
2017-Jul-22 18:00N 60°26' E 022°15'0 0.0
2017-Jul-22 17:30N 60°26' E 022°15'0 0.0
2017-Jul-22 17:00N 60°26' E 022°15'0 0.0
2017-Jul-22 16:30N 60°26' E 022°15'0 0.0
2017-Jul-22 16:00N 60°26' E 022°15'0 0.0
2017-Jul-22 15:30N 60°26' E 022°15'0 0.0
2017-Jul-22 14:54N 60°26' E 022°15'0 0.0
2017-Jul-22 13:57N 60°26' E 022°15'0 0.0
2017-Jul-22 13:30N 60°26' E 022°15'0 0.0
2017-Jul-22 13:00N 60°26' E 022°15'0 0.0
2017-Jul-22 12:30N 60°26' E 022°15'0 0.0
2017-Jul-22 12:00N 60°26' E 022°15'0 0.0
2017-Jul-22 11:30N 60°26' E 022°15'0 0.0
2017-Jul-22 11:00N 60°26' E 022°15'0 0.0
2017-Jul-22 10:27N 60°26' E 022°15'0 0.0
2017-Jul-22 10:00N 60°26' E 022°15'0 0.0
2017-Jul-22 09:30N 60°26' E 022°15'0 0.0
2017-Jul-22 09:00N 60°26' E 022°15'0 0.0
2017-Jul-22 08:30N 60°26' E 022°15'0 0.0
2017-Jul-22 08:00N 60°26' E 022°15'0 0.0
2017-Jul-22 07:30N 60°26' E 022°15'0 0.0
2017-Jul-22 07:00N 60°26' E 022°15'0 0.0
2017-Jul-22 06:30N 60°26' E 022°15'0 0.0
2017-Jul-22 06:00N 60°26' E 022°15'0 0.0
2017-Jul-22 05:30N 60°26' E 022°15'0 0.0
2017-Jul-22 05:00N 60°26' E 022°15'0 0.0
2017-Jul-22 04:30N 60°26' E 022°15'0 0.0
2017-Jul-22 04:00N 60°26' E 022°15'0 0.0
2017-Jul-22 03:30N 60°26' E 022°15'0 0.0
2017-Jul-22 02:57N 60°26' E 022°15'0 0.0
2017-Jul-22 02:30N 60°26' E 022°15'0 0.0
2017-Jul-22 02:00N 60°26' E 022°15'0 0.0
2017-Jul-22 01:27N 60°26' E 022°15'0 0.0
2017-Jul-22 01:00N 60°26' E 022°15'0 0.0
2017-Jul-22 00:30N 60°26' E 022°15'0 0.0
2017-Jul-22 00:00N 60°26' E 022°15'0 0.0
2017-Jul-21 23:30N 60°26' E 022°15'0 0.0
2017-Jul-21 23:00N 60°26' E 022°15'0 0.0
2017-Jul-21 22:30N 60°26' E 022°15'0 0.0
2017-Jul-21 22:00N 60°26' E 022°15'0 0.0
2017-Jul-21 21:30N 60°26' E 022°15'0 0.0
2017-Jul-21 21:00N 60°26' E 022°15'0 0.0
2017-Jul-21 20:30N 60°26' E 022°15'0 0.0
2017-Jul-21 20:00N 60°26' E 022°15'0 0.0
2017-Jul-21 19:30N 60°26' E 022°15'0 0.0
2017-Jul-21 18:57N 60°26' E 022°15'0 0.0
2017-Jul-21 18:30N 60°26' E 022°15'0 0.0
2017-Jul-21 18:00N 60°26' E 022°15'0 0.0
2017-Jul-21 17:27N 60°26' E 022°15'0 0.0
2017-Jul-21 17:00N 60°26' E 022°15'0 0.0
2017-Jul-21 16:28N 60°26' E 022°15'0 0.0
2017-Jul-21 16:00N 60°26' E 022°15'0 0.0
2017-Jul-21 15:30N 60°26' E 022°15'0 0.0
2017-Jul-21 15:00N 60°26' E 022°15'0 0.0
2017-Jul-21 14:30N 60°26' E 022°15'0 0.0
2017-Jul-21 14:00N 60°26' E 022°15'0 0.0
2017-Jul-21 13:30N 60°26' E 022°15'0 0.0
2017-Jul-21 13:00N 60°26' E 022°15'0 0.0
2017-Jul-21 12:30N 60°26' E 022°15'0 0.0
2017-Jul-21 12:00N 60°26' E 022°15'0 0.0
2017-Jul-21 11:30N 60°26' E 022°15'0 0.0
2017-Jul-21 11:00N 60°26' E 022°15'0 0.0
2017-Jul-21 10:30N 60°26' E 022°15'0 0.0
2017-Jul-21 10:00N 60°26' E 022°15'0 0.0
2017-Jul-21 09:30N 60°26' E 022°15'0 0.0
2017-Jul-21 09:00N 60°26' E 022°15'0 0.0
2017-Jul-21 08:30N 60°26' E 022°15'0 0.0
2017-Jul-21 07:57N 60°26' E 022°15'0 0.0
2017-Jul-21 07:30N 60°26' E 022°15'0 0.0
2017-Jul-21 07:00N 60°26' E 022°15'0 0.0
2017-Jul-21 06:30N 60°26' E 022°15'0 0.0
2017-Jul-21 06:00N 60°26' E 022°15'0 0.0
2017-Jul-21 05:30N 60°26' E 022°15'0 0.0
2017-Jul-21 05:00N 60°26' E 022°15'0 0.0
2017-Jul-21 04:30N 60°26' E 022°15'0 0.0
2017-Jul-21 04:00N 60°26' E 022°15'0 0.0
2017-Jul-21 03:30N 60°26' E 022°15'0 0.0
2017-Jul-21 03:00N 60°26' E 022°15'0 0.0
2017-Jul-21 02:30N 60°26' E 022°15'0 0.0
2017-Jul-21 02:00N 60°26' E 022°15'0 0.0
2017-Jul-21 01:30N 60°26' E 022°15'0 0.0
2017-Jul-21 01:00N 60°26' E 022°15'0 0.0
2017-Jul-21 00:30N 60°26' E 022°15'0 0.0
2017-Jul-21 00:00N 60°26' E 022°15'0 0.0
2017-Jul-20 23:30N 60°26' E 022°15'0 0.0
2017-Jul-20 23:00N 60°26' E 022°15'0 0.0
2017-Jul-20 22:30N 60°26' E 022°15'0 0.0
2017-Jul-20 22:00N 60°26' E 022°15'0 0.0
2017-Jul-20 21:30N 60°26' E 022°15'0 0.0
2017-Jul-20 20:56N 60°26' E 022°15'0 0.0
2017-Jul-20 20:29N 60°26' E 022°15'0 0.0
2017-Jul-20 20:00N 60°26' E 022°15'0 0.0
2017-Jul-20 19:25N 60°26' E 022°15'0 0.0
2017-Jul-20 19:00N 60°26' E 022°15'0 0.0
2017-Jul-20 18:30N 60°26' E 022°15'0 0.0
2017-Jul-20 18:00N 60°26' E 022°15'0 0.0
2017-Jul-20 17:30N 60°26' E 022°15'0 0.0
2017-Jul-20 17:00N 60°26' E 022°15'0 0.0
2017-Jul-20 16:28N 60°26' E 022°15'0 0.0
2017-Jul-20 16:00N 60°26' E 022°15'0 0.0
2017-Jul-20 15:30N 60°26' E 022°15'0 0.0
2017-Jul-20 15:00N 60°26' E 022°15'0 0.0
2017-Jul-20 14:00N 60°26' E 022°15'0 0.0
2017-Jul-20 13:30N 60°26' E 022°15'0 0.0
2017-Jul-20 13:00N 60°26' E 022°15'0 0.0
2017-Jul-20 12:30N 60°26' E 022°15'0 0.0
2017-Jul-20 12:00N 60°26' E 022°15'0 0.0
2017-Jul-20 11:30N 60°26' E 022°15'0 0.0
2017-Jul-20 11:00N 60°26' E 022°15'0 0.0
2017-Jul-20 10:30N 60°26' E 022°15'0 0.0
2017-Jul-20 10:00N 60°26' E 022°15'0 0.0
2017-Jul-20 09:30N 60°26' E 022°15'0 0.0
2017-Jul-20 09:00N 60°26' E 022°15'1 1.1
2017-Jul-20 08:30N 60°26' E 022°14'1 1.1
2017-Jul-20 07:58N 60°26' E 022°13'0 0.0
2017-Jul-20 07:28N 60°26' E 022°13'0 0.0
2017-Jul-20 06:58N 60°26' E 022°13'0 0.0
2017-Jul-20 06:28N 60°26' E 022°13'0 0.0
2017-Jul-20 05:58N 60°26' E 022°13'0 0.0
2017-Jul-20 05:28N 60°26' E 022°13'0 0.0
2017-Jul-20 04:58N 60°26' E 022°13'0 0.0
2017-Jul-20 04:28N 60°26' E 022°13'0 0.0
2017-Jul-20 03:58N 60°26' E 022°13'0 0.0
2017-Jul-20 03:28N 60°26' E 022°13'0 0.0
2017-Jul-20 02:58N 60°26' E 022°13'0 0.0
2017-Jul-20 02:28N 60°26' E 022°13'0 0.0
2017-Jul-20 01:58N 60°27' E 022°13'0 0.0
2017-Jul-20 01:28N 60°26' E 022°13'0 0.0
2017-Jul-20 00:58N 60°26' E 022°13'0 0.0
2017-Jul-20 00:28N 60°26' E 022°13'1 2.0
2017-Jul-20 00:00N 60°26' E 022°12'3 5.5
2017-Jul-19 23:30N 60°24' E 022°07'3 6.2
2017-Jul-19 23:01N 60°21' E 022°05'3 6.3
2017-Jul-19 22:31N 60°18' E 022°04'3 6.6
2017-Jul-19 22:01N 60°15' E 022°06'3 6.2
2017-Jul-19 21:31N 60°12' E 022°08'2 4.2
2017-Jul-19 21:01N 60°10' E 022°08'3 6.4
2017-Jul-19 20:30N 60°07' E 022°11'3 6.3
2017-Jul-19 20:00N 60°05' E 022°16'3 6.4
2017-Jul-19 19:30N 60°03' E 022°20'1 1.6
2017-Jul-19 19:00N 60°02' E 022°20'0 0.0
2017-Jul-19 18:31N 60°02' E 022°20'0 0.0
2017-Jul-19 18:01N 60°02' E 022°20'0 0.0
2017-Jul-19 17:31N 60°02' E 022°20'0 0.0
2017-Jul-19 17:01N 60°02' E 022°20'0 0.0
2017-Jul-19 16:30N 60°02' E 022°20'0 0.0
2017-Jul-19 16:00N 60°02' E 022°20'0 0.0
2017-Jul-19 15:30N 60°02' E 022°20'0 0.0
2017-Jul-19 15:01N 60°02' E 022°20'0 0.0
2017-Jul-19 14:31N 60°02' E 022°20'0 0.0
2017-Jul-19 14:01N 60°02' E 022°20'0 0.0
2017-Jul-19 13:31N 60°02' E 022°20'0 0.0
2017-Jul-19 13:00N 60°02' E 022°20'0 0.0
2017-Jul-19 12:30N 60°02' E 022°20'0 0.0
2017-Jul-19 12:01N 60°02' E 022°20'0 0.0
2017-Jul-19 11:31N 60°02' E 022°20'0 0.0
2017-Jul-19 11:01N 60°02' E 022°20'0 0.0
2017-Jul-19 10:31N 60°02' E 022°20'0 0.0
2017-Jul-19 10:01N 60°02' E 022°20'0 0.0
2017-Jul-19 09:30N 60°02' E 022°20'0 0.0
2017-Jul-19 09:00N 60°02' E 022°20'0 0.2
2017-Jul-19 08:30N 60°02' E 022°20'2 3.7
2017-Jul-19 08:01N 60°01' E 022°22'3 6.4
2017-Jul-19 07:30N 59°57' E 022°23'2 4.6
2017-Jul-19 06:59N 59°55' E 022°24'0 0.0
2017-Jul-19 06:29N 59°55' E 022°24'0 0.0
2017-Jul-19 05:59N 59°55' E 022°24'0 0.0
2017-Jul-19 05:29N 59°55' E 022°24'0 0.0
2017-Jul-19 04:59N 59°55' E 022°24'0 0.0
2017-Jul-19 04:29N 59°55' E 022°24'0 0.0
2017-Jul-19 03:59N 59°55' E 022°24'0 0.0
2017-Jul-19 03:29N 59°55' E 022°24'0 0.0
2017-Jul-19 02:59N 59°55' E 022°24'0 0.0
2017-Jul-19 02:29N 59°55' E 022°24'0 0.0
2017-Jul-19 01:56N 59°55' E 022°24'0 0.0
2017-Jul-19 01:29N 59°55' E 022°24'0 0.0
2017-Jul-19 00:59N 59°55' E 022°24'0 0.0
2017-Jul-19 00:29N 59°55' E 022°24'0 0.0
2017-Jul-18 23:59N 59°55' E 022°24'0 0.0
2017-Jul-18 23:29N 59°55' E 022°24'0 0.0
2017-Jul-18 22:59N 59°55' E 022°24'0 0.0
2017-Jul-18 22:29N 59°55' E 022°24'0 0.0
2017-Jul-18 21:59N 59°55' E 022°24'0 0.0
2017-Jul-18 21:29N 59°55' E 022°24'0 0.0
2017-Jul-18 20:59N 59°55' E 022°24'0 0.0
2017-Jul-18 20:28N 59°55' E 022°24'0 0.0
2017-Jul-18 20:00N 59°55' E 022°24'0 0.0
2017-Jul-18 19:26N 59°55' E 022°24'0 0.0
2017-Jul-18 18:59N 59°55' E 022°24'0 0.0
2017-Jul-18 18:29N 59°55' E 022°24'0 0.0
2017-Jul-18 17:59N 59°55' E 022°24'0 0.0
2017-Jul-18 17:29N 59°55' E 022°24'0 0.0
2017-Jul-18 16:59N 59°55' E 022°24'0 0.0
2017-Jul-18 16:29N 59°55' E 022°24'0 0.0
2017-Jul-18 15:59N 59°55' E 022°24'0 0.0
2017-Jul-18 15:29N 59°55' E 022°24'0 0.0
2017-Jul-18 14:59N 59°55' E 022°24'0 0.0
2017-Jul-18 13:59N 59°55' E 022°24'0 0.0
2017-Jul-18 13:29N 59°55' E 022°24'0 0.0
2017-Jul-18 12:59N 59°55' E 022°24'0 0.0
2017-Jul-18 12:26N 59°55' E 022°24'0 0.0
2017-Jul-18 11:59N 59°55' E 022°24'0 0.0
2017-Jul-18 11:29N 59°55' E 022°24'0 0.0
2017-Jul-18 10:59N 59°55' E 022°24'0 0.0
2017-Jul-18 10:29N 59°55' E 022°24'0 0.0
2017-Jul-18 09:59N 59°55' E 022°24'0 0.0
2017-Jul-18 09:29N 59°55' E 022°24'0 0.0
2017-Jul-18 08:59N 59°55' E 022°24'0 0.0
2017-Jul-18 08:29N 59°55' E 022°24'0 0.0
2017-Jul-18 07:59N 59°55' E 022°24'0 0.0
2017-Jul-18 07:29N 59°55' E 022°24'0 0.0
2017-Jul-18 06:59N 59°55' E 022°24'0 0.0
2017-Jul-18 06:29N 59°55' E 022°24'0 0.0
2017-Jul-18 05:59N 59°55' E 022°24'0 0.0
2017-Jul-18 05:29N 59°55' E 022°24'0 0.0
2017-Jul-18 04:59N 59°55' E 022°24'0 0.0
2017-Jul-18 04:26N 59°55' E 022°24'0 0.0
2017-Jul-18 03:58N 59°55' E 022°24'0 0.0
2017-Jul-18 03:28N 59°55' E 022°24'0 0.0
2017-Jul-18 02:58N 59°55' E 022°24'0 0.0
2017-Jul-18 02:28N 59°55' E 022°24'0 0.0
2017-Jul-18 01:58N 59°55' E 022°24'0 0.0
2017-Jul-18 01:28N 59°55' E 022°24'0 0.0
2017-Jul-18 00:58N 59°55' E 022°24'0 0.0
2017-Jul-18 00:28N 59°55' E 022°24'0 0.0
2017-Jul-17 23:58N 59°55' E 022°24'0 0.0
2017-Jul-17 23:28N 59°55' E 022°24'0 0.0
2017-Jul-17 22:58N 59°55' E 022°24'0 0.0
2017-Jul-17 22:28N 59°55' E 022°24'0 0.0
2017-Jul-17 21:58N 59°55' E 022°24'0 0.0
2017-Jul-17 21:28N 59°55' E 022°24'0 0.0
2017-Jul-17 20:58N 59°55' E 022°24'0 0.0
2017-Jul-17 20:30N 59°55' E 022°24'0 0.0
2017-Jul-17 19:59N 59°55' E 022°24'0 0.0
2017-Jul-17 19:28N 59°55' E 022°24'0 0.0
2017-Jul-17 18:58N 59°55' E 022°24'0 0.0
2017-Jul-17 18:28N 59°55' E 022°24'0 0.0
2017-Jul-17 17:58N 59°55' E 022°24'0 0.0
2017-Jul-17 17:28N 59°55' E 022°24'0 0.0
2017-Jul-17 16:52N 59°55' E 022°24'0 0.0
2017-Jul-17 16:28N 59°55' E 022°24'0 0.2
2017-Jul-17 16:00N 59°55' E 022°25'2 4.9
2017-Jul-17 15:30N 59°54' E 022°29'3 6.0
2017-Jul-17 15:01N 59°55' E 022°34'3 5.8
2017-Jul-17 14:31N 59°55' E 022°40'3 6.2
2017-Jul-17 14:00N 59°53' E 022°46'3 6.7
2017-Jul-17 13:31N 59°52' E 022°52'2 3.7
2017-Jul-17 13:01N 59°50' E 022°52'2 4.6
2017-Jul-17 12:31N 59°48' E 022°53'3 5.3
2017-Jul-17 12:01N 59°47' E 022°58'3 5.3
2017-Jul-17 11:31N 59°48' E 023°03'3 5.4
2017-Jul-17 11:00N 59°48' E 023°08'3 5.6
2017-Jul-17 10:31N 59°48' E 023°14'3 5.6
2017-Jul-17 10:01N 59°49' E 023°19'3 6.0
2017-Jul-17 09:31N 59°50' E 023°25'3 6.4
2017-Jul-17 09:01N 59°50' E 023°31'3 6.1
2017-Jul-17 08:30N 59°50' E 023°37'3 6.0
2017-Jul-17 08:01N 59°50' E 023°43'3 5.9
2017-Jul-17 07:31N 59°50' E 023°49'3 6.2
2017-Jul-17 07:00N 59°50' E 023°55'3 6.8
2017-Jul-17 06:31N 59°50' E 024°02'3 6.2
2017-Jul-17 06:00N 59°50' E 024°08'2 3.6
2017-Jul-17 05:31N 59°50' E 024°12'2 3.8
2017-Jul-17 05:00N 59°51' E 024°15'3 5.1
2017-Jul-17 04:31N 59°53' E 024°19'3 5.2
2017-Jul-17 04:01N 59°53' E 024°24'3 5.3
2017-Jul-17 03:31N 59°54' E 024°29'3 5.9
2017-Jul-17 03:01N 59°55' E 024°35'3 5.9
2017-Jul-17 02:31N 59°56' E 024°41'3 5.9
2017-Jul-17 02:01N 59°56' E 024°46'3 6.0
2017-Jul-17 01:31N 59°58' E 024°51'3 6.1
2017-Jul-17 01:01N 59°59' E 024°57'3 6.2
2017-Jul-17 00:31N 60°00' E 025°03'3 6.3
2017-Jul-17 00:00N 60°02' E 025°08'3 6.3
2017-Jul-16 23:31N 60°03' E 025°14'3 6.2
2017-Jul-16 23:01N 60°05' E 025°19'3 6.5
2017-Jul-16 22:31N 60°08' E 025°22'3 5.8
2017-Jul-16 22:01N 60°09' E 025°27'3 6.5
2017-Jul-16 21:30N 60°10' E 025°33'3 6.6
2017-Jul-16 21:00N 60°12' E 025°39'3 6.6
2017-Jul-16 20:30N 60°12' E 025°46'3 5.0
2017-Jul-16 20:00N 60°11' E 025°51'2 4.8
2017-Jul-16 19:30N 60°11' E 025°55'3 5.5
2017-Jul-16 19:01N 60°11' E 026°01'3 5.2
2017-Jul-16 18:31N 60°13' E 026°05'3 6.1
2017-Jul-16 18:00N 60°15' E 026°09'3 6.0
2017-Jul-16 17:30N 60°16' E 026°14'3 6.2
2017-Jul-16 17:01N 60°18' E 026°20'3 5.8
2017-Jul-16 16:31N 60°19' E 026°26'3 5.2
2017-Jul-16 16:00N 60°19' E 026°31'3 5.7
2017-Jul-16 15:30N 60°21' E 026°36'3 5.9
2017-Jul-16 15:01N 60°22' E 026°41'2 4.7
2017-Jul-16 14:30N 60°23' E 026°46'3 5.6
2017-Jul-16 14:00N 60°24' E 026°51'2 4.6
2017-Jul-16 13:31N 60°25' E 026°55'2 3.4
2017-Jul-16 13:00N 60°26' E 026°58'2 3.4
2017-Jul-16 12:30N 60°28' E 026°58'1 1.9
2017-Jul-16 12:00N 60°28' E 026°57'0 0.0
2017-Jul-16 11:30N 60°28' E 026°57'0 0.0
2017-Jul-16 10:56N 60°28' E 026°57'0 0.0
2017-Jul-16 10:30N 60°28' E 026°57'0 0.0
2017-Jul-16 10:00N 60°28' E 026°57'0 0.0
2017-Jul-16 09:27N 60°28' E 026°57'0 0.0
2017-Jul-16 09:00N 60°28' E 026°57'0 0.0
2017-Jul-16 08:27N 60°28' E 026°57'  

Dump ship's entire track history